createdAt,value
2023-05-01T00:01:15.480Z,4.43
2023-05-01T00:03:43.442Z,3.90
2023-05-01T00:06:11.569Z,3.60
2023-05-01T00:08:39.479Z,3.40
2023-05-01T00:11:09.755Z,3.63
2023-05-01T00:13:37.723Z,4.85
2023-05-01T00:16:10.597Z,4.55
2023-05-01T00:18:39.037Z,2.80
2023-05-01T00:21:07.022Z,3.13
2023-05-01T00:23:34.884Z,2.50
2023-05-01T00:26:02.808Z,2.70
2023-05-01T00:28:30.682Z,4.00
2023-05-01T00:30:58.696Z,3.67
2023-05-01T00:33:27.968Z,3.60
2023-05-01T00:35:56.034Z,2.70
2023-05-01T00:38:24.280Z,3.35
2023-05-01T00:40:52.276Z,3.10
2023-05-01T00:43:20.679Z,3.47
2023-05-01T00:45:48.654Z,2.70
2023-05-01T00:48:17.177Z,4.38
2023-05-01T00:50:47.349Z,2.83
2023-05-01T00:53:15.565Z,2.80
2023-05-01T00:55:43.924Z,3.00
2023-05-01T00:58:12.246Z,2.50
2023-05-01T01:00:40.491Z,7.18
2023-05-01T01:03:08.619Z,3.05
2023-05-01T01:05:47.636Z,3.75
2023-05-01T01:08:24.958Z,3.92
2023-05-01T01:10:58.055Z,3.80
2023-05-01T01:13:33.414Z,3.35
2023-05-01T01:16:10.256Z,3.80
2023-05-01T01:18:44.754Z,2.70
2023-05-01T01:21:19.807Z,2.65
2023-05-01T01:24:13.709Z,3.80
2023-05-01T01:27:03.580Z,4.33
2023-05-01T01:30:14.095Z,3.20
2023-05-01T01:33:10.253Z,3.00
2023-05-01T01:35:43.863Z,4.72
2023-05-01T01:38:18.004Z,3.25
2023-05-01T01:40:54.684Z,5.20
2023-05-01T01:43:24.020Z,3.42
2023-05-01T01:46:01.361Z,3.50
2023-05-01T01:48:34.488Z,3.92
2023-05-01T01:51:09.250Z,3.05
2023-05-01T01:53:40.166Z,4.18
2023-05-01T01:56:09.680Z,2.78
2023-05-01T01:58:39.712Z,5.72
2023-05-01T02:01:08.457Z,4.75
2023-05-01T02:03:39.178Z,3.50
2023-05-01T02:06:09.409Z,3.80
2023-05-01T02:08:39.418Z,4.20
2023-05-01T02:11:08.883Z,7.28
2023-05-01T02:13:40.002Z,3.38
2023-05-01T02:16:09.434Z,4.80
2023-05-01T02:18:38.859Z,5.28
2023-05-01T02:21:08.577Z,5.10
2023-05-01T02:23:36.988Z,3.92
2023-05-01T02:26:06.142Z,3.67
2023-05-01T02:28:37.414Z,3.55
2023-05-01T02:31:05.351Z,3.10
2023-05-01T02:33:33.233Z,3.67
2023-05-01T02:36:01.137Z,3.10
2023-05-01T02:38:30.526Z,3.43
2023-05-01T02:41:00.474Z,3.60
2023-05-01T02:43:32.941Z,3.17
2023-05-01T02:46:02.563Z,5.35
2023-05-01T02:48:33.177Z,7.90
2023-05-01T02:51:02.650Z,4.80
2023-05-01T02:53:33.142Z,4.78
2023-05-01T02:56:01.236Z,5.40
2023-05-01T02:58:32.719Z,3.85
2023-05-01T03:01:00.596Z,3.70
2023-05-01T03:03:28.599Z,3.00
2023-05-01T03:05:57.464Z,3.28
2023-05-01T03:08:25.521Z,3.35
2023-05-01T03:10:54.955Z,3.50
2023-05-01T03:13:23.107Z,3.00
2023-05-01T03:15:51.038Z,3.65
2023-05-01T03:18:18.946Z,4.10
2023-05-01T03:20:53.389Z,2.80
2023-05-01T03:23:21.390Z,3.10
2023-05-01T03:25:49.376Z,3.75
2023-05-01T03:28:18.624Z,3.47
2023-05-01T03:30:46.475Z,4.15
2023-05-01T03:33:14.464Z,3.88
2023-05-01T03:35:42.668Z,3.13
2023-05-01T03:38:10.848Z,4.47
2023-05-01T03:40:38.781Z,6.25
2023-05-01T03:43:06.650Z,4.90
2023-05-01T03:45:35.904Z,3.17
2023-05-01T03:48:03.881Z,3.50
2023-05-01T03:50:32.015Z,3.78
2023-05-01T03:52:59.950Z,3.20
2023-05-01T03:55:27.982Z,2.90
2023-05-01T03:57:55.872Z,4.70
2023-05-01T04:00:24.126Z,3.67
2023-05-01T04:02:53.852Z,5.38
2023-05-01T04:05:22.620Z,4.43
2023-05-01T04:07:50.710Z,5.15
2023-05-01T04:10:18.855Z,6.05
2023-05-01T04:12:46.759Z,3.30
2023-05-01T04:15:15.626Z,3.50
2023-05-01T04:17:44.524Z,6.15
2023-05-01T04:20:14.119Z,5.93
2023-05-01T04:22:42.260Z,3.50
2023-05-01T04:25:11.249Z,6.20
2023-05-01T04:27:39.128Z,6.80
2023-05-01T04:30:08.446Z,4.50
2023-05-01T04:32:36.715Z,4.80
2023-05-01T04:35:05.447Z,4.43
2023-05-01T04:37:35.653Z,3.60
2023-05-01T04:40:03.568Z,5.90
2023-05-01T04:42:32.300Z,4.78
2023-05-01T04:45:03.864Z,4.90
2023-05-01T04:47:31.869Z,4.45
2023-05-01T04:49:59.821Z,4.28
2023-05-01T04:52:27.708Z,5.78
2023-05-01T04:54:57.820Z,4.78
2023-05-01T04:57:25.856Z,6.03
2023-05-01T04:59:53.903Z,5.75
2023-05-01T05:02:21.961Z,4.38
2023-05-01T05:04:50.130Z,5.32
2023-05-01T05:07:18.005Z,6.38
2023-05-01T05:09:45.848Z,5.43
2023-05-01T05:12:15.656Z,6.38
2023-05-01T05:14:43.810Z,5.45
2023-05-01T05:17:11.674Z,7.18
2023-05-01T05:19:39.571Z,3.67
2023-05-01T05:22:07.590Z,4.95
2023-05-01T05:24:35.503Z,4.00
2023-05-01T05:27:04.088Z,4.25
2023-05-01T05:29:34.974Z,5.03
2023-05-01T05:32:03.022Z,5.82
2023-05-01T05:34:31.000Z,5.50
2023-05-01T05:36:58.848Z,7.10
2023-05-01T05:39:26.811Z,5.00
2023-05-01T05:41:55.340Z,7.47
2023-05-01T05:44:23.286Z,5.80
2023-05-01T05:46:52.633Z,3.97
2023-05-01T05:49:20.627Z,3.60
2023-05-01T05:51:48.577Z,5.03
2023-05-01T05:54:16.475Z,4.00
2023-05-01T05:56:44.615Z,6.50
2023-05-01T05:59:12.426Z,4.05
2023-05-01T06:01:42.667Z,5.73
2023-05-01T06:04:14.064Z,5.35
2023-05-01T06:06:42.254Z,6.30
2023-05-01T06:09:10.363Z,5.10
2023-05-01T06:11:38.256Z,5.25
2023-05-01T06:14:06.134Z,5.43
2023-05-01T06:16:34.350Z,4.93
2023-05-01T06:19:02.473Z,5.47
2023-05-01T06:21:32.812Z,7.38
2023-05-01T06:24:00.781Z,4.40
2023-05-01T06:26:28.703Z,6.05
2023-05-01T06:28:56.692Z,7.05
2023-05-01T06:31:24.549Z,7.35
2023-05-01T06:33:52.556Z,4.05
2023-05-01T06:36:20.561Z,4.77
2023-05-01T06:38:49.851Z,3.70
2023-05-01T06:41:17.847Z,5.43
2023-05-01T06:43:45.731Z,6.00
2023-05-01T06:46:14.010Z,4.25
2023-05-01T06:48:41.937Z,6.18
2023-05-01T06:51:10.143Z,4.83
2023-05-01T06:53:38.459Z,5.50
2023-05-01T06:56:08.089Z,5.78
2023-05-01T06:58:35.935Z,5.15
2023-05-01T07:01:04.036Z,5.45
2023-05-01T07:03:32.113Z,5.97
2023-05-01T07:06:00.326Z,5.72
2023-05-01T07:08:28.427Z,4.55
2023-05-01T07:10:56.381Z,4.90
2023-05-01T07:13:26.336Z,7.18
2023-05-01T07:15:54.964Z,8.10
2023-05-01T07:18:23.188Z,6.45
2023-05-01T07:20:51.173Z,6.05
2023-05-01T07:23:19.297Z,4.97
2023-05-01T07:25:47.301Z,5.70
2023-05-01T07:28:15.874Z,5.88
2023-05-01T07:30:45.464Z,5.20
2023-05-01T07:33:13.680Z,6.50
2023-05-01T07:35:43.146Z,4.93
2023-05-01T07:38:11.191Z,5.35
2023-05-01T07:40:39.379Z,4.70
2023-05-01T07:43:07.363Z,6.38
2023-05-01T07:45:35.356Z,5.70
2023-05-01T07:48:05.056Z,6.53
2023-05-01T07:50:33.299Z,7.17
2023-05-01T07:53:01.306Z,5.22
2023-05-01T07:55:29.264Z,4.77
2023-05-01T07:57:57.386Z,8.85
2023-05-01T08:00:25.563Z,5.70
2023-05-01T08:02:53.613Z,6.13
2023-05-01T08:05:22.986Z,9.40
2023-05-01T08:07:50.946Z,9.10
2023-05-01T08:10:18.920Z,5.77
2023-05-01T08:12:46.910Z,10.45
2023-05-01T08:15:14.918Z,7.40
2023-05-01T08:17:42.835Z,8.05
2023-05-01T08:20:12.371Z,5.00
2023-05-01T08:22:41.634Z,6.00
2023-05-01T08:25:09.807Z,8.02
2023-05-01T08:27:37.781Z,5.50
2023-05-01T08:30:06.982Z,9.27
2023-05-01T08:32:34.830Z,6.43
2023-05-01T08:35:02.827Z,6.43
2023-05-01T08:37:31.280Z,7.03
2023-05-01T08:40:00.616Z,6.47
2023-05-01T08:42:31.019Z,7.68
2023-05-01T08:45:02.229Z,9.63
2023-05-01T08:47:30.554Z,8.60
2023-05-01T08:50:00.283Z,6.53
2023-05-01T08:52:29.909Z,10.05
2023-05-01T08:55:01.452Z,6.75
2023-05-01T08:57:31.509Z,9.10
2023-05-01T09:00:01.960Z,8.07
2023-05-01T09:02:30.695Z,7.78
2023-05-01T09:05:01.475Z,8.30
2023-05-01T09:07:30.961Z,8.10
2023-05-01T09:10:00.716Z,8.65
2023-05-01T09:12:29.050Z,10.95
2023-05-01T09:14:58.099Z,7.63
2023-05-01T09:17:26.294Z,11.57
2023-05-01T09:19:54.844Z,9.80
2023-05-01T09:22:23.012Z,9.93
2023-05-01T09:24:51.063Z,8.40
2023-05-01T09:27:20.406Z,7.70
2023-05-01T09:29:49.198Z,9.95
2023-05-01T09:32:20.780Z,9.73
2023-05-01T09:34:50.077Z,12.05
2023-05-01T09:37:28.526Z,9.38
2023-05-01T09:40:10.066Z,9.40
2023-05-01T09:42:40.421Z,8.90
2023-05-01T09:45:14.154Z,16.08
2023-05-01T09:47:43.769Z,12.10
2023-05-01T09:50:13.778Z,9.52
2023-05-01T09:52:52.023Z,10.93
2023-05-01T09:55:20.753Z,9.27
2023-05-01T09:57:50.480Z,10.20
2023-05-01T10:00:21.771Z,10.88
2023-05-01T10:02:51.044Z,10.60
2023-05-01T10:05:19.814Z,9.57
2023-05-01T10:07:59.389Z,11.57
2023-05-01T10:10:28.202Z,8.95
2023-05-01T10:12:57.487Z,11.00
2023-05-01T10:15:37.752Z,10.15
2023-05-01T10:18:06.124Z,10.70
2023-05-01T10:20:34.112Z,11.38
2023-05-01T10:23:03.270Z,14.27
2023-05-01T10:25:32.356Z,11.02
2023-05-01T10:28:04.743Z,8.50
2023-05-01T10:30:33.088Z,12.82
2023-05-01T10:33:01.291Z,11.05
2023-05-01T10:35:34.318Z,7.07
2023-05-01T10:38:03.616Z,10.30
2023-05-01T10:40:55.345Z,11.23
2023-05-01T10:43:28.576Z,13.10
2023-05-01T10:46:29.670Z,9.47
2023-05-01T10:48:58.750Z,13.55
2023-05-01T10:51:28.636Z,9.80
2023-05-01T10:54:26.753Z,11.65
2023-05-01T10:56:56.230Z,12.65
2023-05-01T10:59:26.049Z,11.05
2023-05-01T11:01:55.154Z,11.27
2023-05-01T11:04:53.938Z,12.23
2023-05-01T11:07:23.613Z,13.63
2023-05-01T11:09:55.165Z,11.35
2023-05-01T11:12:52.361Z,11.20
2023-05-01T11:15:32.716Z,10.30
2023-05-01T11:18:01.481Z,10.85
2023-05-01T11:20:52.156Z,10.73
2023-05-01T11:23:23.429Z,13.20
2023-05-01T11:25:51.705Z,14.73
2023-05-01T11:28:23.423Z,10.75
2023-05-01T11:30:52.951Z,8.30
2023-05-01T11:33:26.230Z,11.38
2023-05-01T11:36:01.887Z,9.50
2023-05-01T11:38:30.388Z,10.65
2023-05-01T11:41:05.232Z,10.80
2023-05-01T11:43:33.357Z,12.35
2023-05-01T11:46:05.354Z,10.02
2023-05-01T11:48:33.460Z,8.32
2023-05-01T11:51:01.532Z,9.63
2023-05-01T11:53:30.289Z,7.68
2023-05-01T11:55:59.549Z,11.18
2023-05-01T11:58:34.801Z,10.23
2023-05-01T12:01:04.518Z,9.43
2023-05-01T12:03:43.021Z,11.43
2023-05-01T12:06:13.053Z,8.90
2023-05-01T12:08:45.306Z,8.63
2023-05-01T12:11:13.496Z,9.88
2023-05-01T12:13:42.408Z,9.52
2023-05-01T12:16:11.859Z,6.93
2023-05-01T12:18:39.887Z,6.70
2023-05-01T12:21:17.937Z,7.23
2023-05-01T12:23:46.091Z,6.65
2023-05-01T12:26:18.187Z,7.18
2023-05-01T12:28:57.153Z,9.65
2023-05-01T12:31:27.096Z,6.93
2023-05-01T12:33:56.715Z,10.85
2023-05-01T12:36:27.288Z,7.40
2023-05-01T12:39:00.628Z,6.95
2023-05-01T12:41:39.154Z,7.72
2023-05-01T12:44:18.915Z,6.03
2023-05-01T12:46:55.484Z,6.57
2023-05-01T12:49:24.334Z,6.20
2023-05-01T12:51:53.446Z,8.30
2023-05-01T12:54:23.040Z,9.93
2023-05-01T12:56:53.121Z,6.32
2023-05-01T12:59:23.328Z,7.20
2023-05-01T13:02:00.363Z,5.82
2023-05-01T13:04:29.394Z,9.27
2023-05-01T13:06:58.625Z,6.90
2023-05-01T13:09:28.062Z,6.80
2023-05-01T13:12:00.459Z,7.50
2023-05-01T13:14:28.583Z,5.68
2023-05-01T13:16:56.900Z,5.55
2023-05-01T13:19:30.123Z,7.03
2023-05-01T13:21:58.544Z,6.72
2023-05-01T13:24:37.011Z,7.30
2023-05-01T13:27:06.202Z,6.38
2023-05-01T13:29:34.259Z,6.05
2023-05-01T13:32:04.473Z,5.00
2023-05-01T13:34:35.134Z,7.68
2023-05-01T13:37:03.850Z,5.10
2023-05-01T13:39:31.801Z,6.68
2023-05-01T13:41:59.700Z,4.90
2023-05-01T13:44:29.068Z,8.67
2023-05-01T13:46:56.937Z,8.02
2023-05-01T13:49:25.626Z,5.63
2023-05-01T13:51:55.566Z,5.15
2023-05-01T13:54:23.573Z,6.23
2023-05-01T13:56:52.529Z,5.00
2023-05-01T13:59:20.417Z,4.93
2023-05-01T14:01:48.719Z,4.35
2023-05-01T14:04:20.026Z,4.90
2023-05-01T14:06:49.114Z,7.97
2023-05-01T14:09:19.556Z,6.45
2023-05-01T14:11:48.684Z,5.00
2023-05-01T14:14:17.394Z,5.90
2023-05-01T14:16:48.464Z,5.22
2023-05-01T14:19:17.347Z,5.65
2023-05-01T14:21:46.826Z,8.55
2023-05-01T14:24:17.730Z,5.63
2023-05-01T14:26:48.710Z,5.50
2023-05-01T14:29:23.845Z,6.63
2023-05-01T14:31:52.507Z,5.60
2023-05-01T14:34:21.471Z,8.38
2023-05-01T14:36:49.497Z,6.53
2023-05-01T14:39:17.934Z,5.97
2023-05-01T14:41:49.071Z,6.40
2023-05-01T14:44:19.462Z,7.78
2023-05-01T14:46:51.692Z,7.25
2023-05-01T14:49:21.576Z,7.70
2023-05-01T14:51:49.845Z,7.05
2023-05-01T14:54:17.723Z,7.10
2023-05-01T14:56:48.515Z,7.20
2023-05-01T14:59:17.109Z,8.20
2023-05-01T15:01:45.065Z,6.10
2023-05-01T15:04:13.069Z,7.63
2023-05-01T15:06:41.138Z,6.88
2023-05-01T15:09:09.015Z,8.23
2023-05-01T15:11:36.997Z,6.15
2023-05-01T15:14:06.588Z,6.55
2023-05-01T15:16:34.728Z,5.82
2023-05-01T15:19:02.662Z,7.07
2023-05-01T15:21:31.635Z,6.18
2023-05-01T15:23:59.514Z,6.17
2023-05-01T15:26:27.413Z,6.93
2023-05-01T15:28:55.351Z,8.00
2023-05-01T15:31:24.759Z,8.13
2023-05-01T15:33:52.716Z,8.60
2023-05-01T15:36:20.547Z,8.00
2023-05-01T15:38:48.675Z,7.93
2023-05-01T15:41:18.906Z,10.45
2023-05-01T15:43:47.185Z,7.40
2023-05-01T15:46:16.365Z,8.88
2023-05-01T15:48:46.320Z,9.63
2023-05-01T15:51:14.219Z,8.27
2023-05-01T15:53:42.275Z,8.90
2023-05-01T15:56:10.648Z,9.80
2023-05-01T15:58:38.581Z,7.93
2023-05-01T16:01:07.770Z,8.00
2023-05-01T16:03:35.947Z,8.77
2023-05-01T16:06:06.163Z,10.13
2023-05-01T16:08:34.197Z,7.80
2023-05-01T16:11:04.782Z,8.93
2023-05-01T16:13:32.843Z,9.82
2023-05-01T16:16:03.060Z,8.40
2023-05-01T16:18:30.980Z,9.32
2023-05-01T16:20:58.879Z,9.90
2023-05-01T16:23:28.531Z,9.00
2023-05-01T16:25:56.474Z,10.52
2023-05-01T16:28:26.017Z,10.30
2023-05-01T16:30:54.294Z,10.18
2023-05-01T16:33:23.354Z,11.68
2023-05-01T16:35:51.736Z,12.35
2023-05-01T16:38:20.488Z,11.10
2023-05-01T16:40:49.827Z,10.98
2023-05-01T16:43:17.809Z,13.80
2023-05-01T16:45:46.797Z,12.82
2023-05-01T16:48:20.685Z,13.85
2023-05-01T16:50:48.612Z,14.40
2023-05-01T16:53:16.618Z,15.10
2023-05-01T16:55:44.940Z,16.52
2023-05-01T16:58:14.103Z,15.20
2023-05-01T17:00:42.799Z,19.15
2023-05-01T17:03:10.737Z,17.65
2023-05-01T17:05:38.672Z,19.27
2023-05-01T17:08:06.560Z,18.40
2023-05-01T17:10:34.456Z,21.70
2023-05-01T17:13:02.334Z,21.45
2023-05-01T17:15:31.631Z,21.33
2023-05-01T17:17:59.676Z,20.05
2023-05-01T17:20:28.494Z,20.33
2023-05-01T17:22:56.381Z,19.50
2023-05-01T17:25:24.255Z,20.38
2023-05-01T17:27:52.311Z,19.15
2023-05-01T17:30:20.277Z,21.63
2023-05-01T17:32:49.675Z,18.02
2023-05-01T17:35:17.972Z,19.97
2023-05-01T17:37:45.946Z,19.45
2023-05-01T17:40:14.133Z,20.23
2023-05-01T17:42:42.091Z,23.35
2023-05-01T17:45:11.023Z,22.70
2023-05-01T17:47:42.863Z,21.63
2023-05-01T17:50:14.233Z,24.00
2023-05-01T17:52:43.270Z,21.20
2023-05-01T17:55:11.427Z,23.98
2023-05-01T17:57:40.284Z,23.40
2023-05-01T18:00:10.206Z,23.75
2023-05-01T18:02:39.187Z,28.17
2023-05-01T18:05:07.509Z,28.30
2023-05-01T18:07:36.741Z,29.15
2023-05-01T18:10:05.863Z,29.30
2023-05-01T18:12:33.771Z,30.27
2023-05-01T18:15:01.782Z,32.95
2023-05-01T18:17:29.743Z,33.85
2023-05-01T18:19:57.957Z,36.35
2023-05-01T18:22:26.056Z,35.90
2023-05-01T18:24:56.214Z,38.73
2023-05-01T18:27:25.997Z,35.17
2023-05-01T18:29:55.520Z,38.05
2023-05-01T18:32:30.188Z,40.47
2023-05-01T18:35:04.059Z,36.72
2023-05-01T18:37:32.469Z,38.07
2023-05-01T18:40:01.834Z,36.63
2023-05-01T18:42:29.862Z,38.30
2023-05-01T18:44:57.759Z,35.78
2023-05-01T18:47:26.348Z,37.55
2023-05-01T18:49:54.340Z,35.05
2023-05-01T18:52:22.207Z,38.20
2023-05-01T18:54:50.217Z,36.30
2023-05-01T18:57:19.520Z,35.95
2023-05-01T18:59:47.457Z,35.92
2023-05-01T19:02:15.498Z,32.28
2023-05-01T19:04:56.881Z,32.58
2023-05-01T19:07:25.775Z,32.30
2023-05-01T19:09:53.778Z,35.60
2023-05-01T19:12:23.004Z,31.98
2023-05-01T19:14:50.894Z,32.72
2023-05-01T19:17:19.229Z,32.20
2023-05-01T19:19:47.082Z,33.05
2023-05-01T19:22:18.861Z,33.95
2023-05-01T19:24:46.742Z,34.67
2023-05-01T19:27:14.628Z,33.10
2023-05-01T19:29:43.962Z,37.72
2023-05-01T19:32:12.065Z,34.33
2023-05-01T19:34:40.108Z,37.10
2023-05-01T19:37:08.396Z,33.28
2023-05-01T19:39:36.350Z,36.08
2023-05-01T19:42:04.311Z,38.47
2023-05-01T19:44:32.341Z,35.95
2023-05-01T19:47:01.828Z,36.00
2023-05-01T19:49:29.829Z,41.80
2023-05-01T19:51:58.204Z,39.42
2023-05-01T19:54:26.623Z,38.45
2023-05-01T19:56:54.451Z,35.60
2023-05-01T19:59:22.407Z,40.97
2023-05-01T20:01:50.540Z,32.67
2023-05-01T20:04:22.894Z,36.00
2023-05-01T20:06:51.000Z,31.50
2023-05-01T20:09:18.946Z,30.92
2023-05-01T20:11:46.806Z,29.13
2023-05-01T20:14:15.060Z,34.85
2023-05-01T20:16:43.016Z,31.90
2023-05-01T20:19:10.976Z,32.80
2023-05-01T20:21:40.226Z,30.88
2023-05-01T20:24:08.247Z,32.78
2023-05-01T20:26:36.143Z,31.40
2023-05-01T20:29:04.278Z,33.35
2023-05-01T20:31:33.892Z,34.58
2023-05-01T20:34:01.954Z,33.13
2023-05-01T20:36:29.928Z,34.38
2023-05-01T20:38:59.397Z,33.57
2023-05-01T20:41:27.954Z,31.63
2023-05-01T20:43:55.977Z,30.48
2023-05-01T20:46:24.812Z,33.75
2023-05-01T20:48:53.470Z,30.38
2023-05-01T20:51:21.869Z,28.52
2023-05-01T20:53:49.846Z,29.03
2023-05-01T20:56:19.078Z,30.90
2023-05-01T20:58:46.951Z,31.67
2023-05-01T21:01:14.874Z,27.98
2023-05-01T21:03:42.887Z,28.27
2023-05-01T21:06:10.972Z,27.65
2023-05-01T21:08:38.958Z,28.42
2023-05-01T21:11:06.865Z,24.93
2023-05-01T21:13:36.233Z,25.80
2023-05-01T21:16:05.912Z,27.97
2023-05-01T21:18:35.068Z,24.20
2023-05-01T21:21:03.745Z,23.85
2023-05-01T21:23:31.782Z,24.37
2023-05-01T21:25:59.732Z,25.60
2023-05-01T21:28:27.638Z,23.25
2023-05-01T21:30:56.973Z,27.98
2023-05-01T21:33:25.093Z,25.77
2023-05-01T21:35:53.107Z,24.60
2023-05-01T21:38:20.984Z,25.00
2023-05-01T21:40:48.948Z,27.88
2023-05-01T21:43:19.336Z,27.27
2023-05-01T21:45:47.184Z,24.05
2023-05-01T21:48:17.067Z,24.33
2023-05-01T21:50:48.867Z,26.77
2023-05-01T21:53:17.001Z,27.85
2023-05-01T21:55:47.087Z,28.58
2023-05-01T21:58:15.067Z,27.30
2023-05-01T22:00:43.033Z,28.45
2023-05-01T22:03:11.361Z,25.70
2023-05-01T22:05:41.709Z,24.50
2023-05-01T22:08:09.645Z,25.35
2023-05-01T22:10:37.550Z,26.17
2023-05-01T22:13:06.347Z,25.00
2023-05-01T22:15:34.298Z,24.83
2023-05-01T22:18:02.372Z,22.10
2023-05-01T22:20:30.772Z,25.00
2023-05-01T22:23:00.007Z,25.73
2023-05-01T22:25:28.588Z,26.02
2023-05-01T22:27:56.456Z,24.83
2023-05-01T22:30:24.376Z,26.10
2023-05-01T22:32:52.313Z,25.08
2023-05-01T22:35:20.275Z,23.38
2023-05-01T22:37:48.294Z,22.53
2023-05-01T22:40:17.993Z,23.27
2023-05-01T22:42:47.004Z,22.08
2023-05-01T22:45:15.027Z,21.75
2023-05-01T22:47:42.998Z,22.77
2023-05-01T22:50:11.982Z,21.55
2023-05-01T22:52:40.260Z,19.67
2023-05-01T22:55:08.713Z,20.08
2023-05-01T22:57:38.030Z,18.67
2023-05-01T23:00:08.028Z,21.65
2023-05-01T23:02:36.099Z,18.92
2023-05-01T23:05:04.716Z,20.42
2023-05-01T23:07:32.608Z,16.50
2023-05-01T23:10:02.316Z,18.88
2023-05-01T23:12:30.502Z,16.80
2023-05-01T23:14:59.873Z,19.08
2023-05-01T23:17:35.514Z,14.93
2023-05-01T23:20:04.831Z,16.40
2023-05-01T23:22:34.167Z,14.55
2023-05-01T23:25:02.082Z,15.98
2023-05-01T23:27:29.925Z,16.85
2023-05-01T23:29:59.449Z,17.33
2023-05-01T23:32:29.298Z,15.68
2023-05-01T23:35:03.754Z,16.35
2023-05-01T23:37:31.700Z,17.05
2023-05-01T23:40:00.727Z,16.48
2023-05-01T23:42:29.283Z,19.67
2023-05-01T23:44:58.914Z,21.55
2023-05-01T23:47:27.059Z,17.52
2023-05-01T23:49:55.092Z,18.90
2023-05-01T23:52:23.170Z,19.45
2023-05-01T23:54:51.031Z,18.38
2023-05-01T23:57:18.912Z,21.38
2023-05-01T23:59:46.842Z,20.15
